Terminal Aerodrome Forecast
Issued by NWS Lake Charles, LA

Home | Current Version | Previous Version | Text Only | Print | Product List | Glossary On
Versions: 1 2 3 4 5 6 7 8 9 10 11 12 13 14 15 16 17 18 19 20 21 22 23 24
495
FTUS44 KLCH 210728 AAA
TAFARA
TAF AMD
KARA 210728Z 2107/2206 16012G18KT P6SM OVC005
      TEMPO 2107/2110 17017G25KT 1SM -TSRA OVC003CB
     FM211100 VRB04KT 1SM BR OVC003
     FM211600 22010KT P6SM OVC015
     FM220000 22012KT 4SM BR OVC004=

USA.gov is the U.S. government's official web portal to all federal, state and local government web resources and services.